Time;durP1;ratioP1;P1;durP2;ratioP2;P2;SDS_P1;SDS_P2;PMS_P1;PMS_P2;Temp;Humidity;BMP_temperature;BMP_pressure;BME280_temperature;BME280_humidity;BME280_pressure;Samples;Min_cycle;Max_cycle;Signal;HPM_P1;HPM_P2
2022/10/17 00:00:50;;;;;;;30.77;20.27;;;;;;;;;;5055190;28;20021;-84
2022/10/17 00:03:17;;;;;;;36.55;21.02;;;;;;;;;;5055212;28;20090;-85
2022/10/17 00:05:44;;;;;;;36.63;22.35;;;;;;;;;;5055379;28;20025;-83
2022/10/17 00:08:12;;;;;;;33.85;21.73;;;;;;;;;;5054877;28;20025;-85
2022/10/17 00:10:38;;;;;;;33.92;23.15;;;231.20;2252.80;;;;;;5055172;28;20025;-84
2022/10/17 00:13:04;;;;;;;33.22;21.02;;;231.10;2252.80;;;;;;5056768;28;20029;-85
2022/10/17 00:15:30;;;;;;;35.90;21.98;;;231.00;2252.80;;;;;;5054635;28;20032;-83
2022/10/17 00:17:56;;;;;;;30.05;20.92;;;230.90;2252.80;;;;;;5054982;28;20025;-83
2022/10/17 00:20:22;;;;;;;34.00;20.20;;;230.90;2252.80;;;;;;5054917;28;20059;-82
2022/10/17 00:22:48;;;;;;;31.90;19.08;;;230.90;2252.80;;;;;;5054553;28;20155;-83
2022/10/17 00:25:13;;;;;;;28.80;19.27;;;230.80;2252.80;;;;;;5054768;28;20126;-81
2022/10/17 00:27:40;;;;;;;28.73;18.77;;;230.90;2252.80;;;;;;5054899;28;20541;-82
2022/10/17 00:30:10;;;;;;;26.38;18.27;;;231.00;2252.80;;;;;;5055812;28;20041;-83
2022/10/17 00:32:36;;;;;;;28.08;18.58;;;231.00;2252.80;;;;;;5054617;28;20119;-82
2022/10/17 00:35:05;;;;;;;33.35;19.63;;;231.10;2252.80;;;;;;5055907;28;20100;-81
2022/10/17 00:37:31;;;;;;;30.33;18.25;;;231.00;2252.80;;;;;;5054305;28;20524;-83
2022/10/17 00:39:58;;;;;;;27.33;20.23;;;231.10;2252.80;;;;;;5054615;28;20032;-81
2022/10/17 00:42:25;;;;;;;27.27;18.63;;;230.70;2252.80;;;;;;5054460;28;20033;-83
2022/10/17 00:45:04;;;;;;;28.95;20.40;;;230.90;2252.80;;;;;;5054353;28;20060;-82
2022/10/17 00:47:32;;;;;;;28.10;17.60;;;230.80;2252.80;;;;;;5054435;28;20078;-83
2022/10/17 00:49:59;;;;;;;33.95;17.70;;;230.90;2252.80;;;;;;5054126;28;20440;-82
2022/10/17 00:52:28;;;;;;;28.35;18.20;;;230.80;2252.80;;;;;;5056040;28;20083;-83
2022/10/17 00:55:02;;;;;;;29.50;18.75;;;231.00;2252.80;;;;;;5054255;28;20020;-82
2022/10/17 00:57:30;;;;;;;30.90;19.67;;;231.10;2252.80;;;;;;5054079;28;20053;-82
2022/10/17 00:59:58;;;;;;;29.67;20.17;;;231.10;2252.80;;;;;;5054246;28;20021;-83
2022/10/17 01:02:24;;;;;;;32.85;20.33;;;231.10;2252.80;;;;;;5054054;28;20044;-83
2022/10/17 01:04:53;;;;;;;29.50;20.95;;;231.10;2252.80;;;;;;5053873;28;20025;-84
2022/10/17 01:07:20;;;;;;;33.97;23.10;;;231.20;2252.80;;;;;;5053566;28;20029;-84
2022/10/17 01:09:46;;;;;;;28.15;16.33;;;231.20;2252.80;;;;;;5054005;28;20029;-83
2022/10/17 01:12:15;;;;;;;23.35;16.27;;;231.10;2252.80;;;;;;5055075;28;20034;-83
2022/10/17 01:14:53;;;;;;;23.67;15.73;;;231.20;2252.80;;;;;;5054068;28;20377;-82
2022/10/17 01:17:25;;;;;;;22.50;15.02;;;230.80;2252.80;;;;;;5053913;28;20530;-81
2022/10/17 01:20:18;;;;;;;24.45;15.13;;;230.50;2252.80;;;;;;5053813;28;20025;-84
2022/10/17 01:23:25;;;;;;;21.27;13.73;;;205.60;2252.80;;;;;;5053762;28;20029;-81
2022/10/17 01:25:54;;;;;;;22.60;14.70;;;230.60;2252.80;;;;;;5027341;28;20474;-84
2022/10/17 01:28:29;;;;;;;21.98;13.48;;;230.50;2252.80;;;;;;5055087;28;20078;-83
2022/10/17 01:31:12;;;;;;;22.45;12.95;;;230.40;2252.80;;;;;;5053349;28;20053;-82
2022/10/17 01:33:43;;;;;;;;;;;230.40;2252.80;;;;;;5053696;28;20025;-80
2022/10/17 01:36:31;;;;;;;19.98;13.60;;;230.50;2252.80;;;;;;5053478;28;19908;-83
2022/10/17 01:39:30;;;;;;;20.85;14.05;;;230.60;2252.80;;;;;;5053183;28;20409;-83
2022/10/17 01:42:07;;;;;;;24.38;14.40;;;230.40;2252.80;;;;;;5031569;28;20069;-83
2022/10/17 01:44:41;;;;;;;25.25;14.07;;;230.50;2252.80;;;;;;5053464;28;20466;-83
2022/10/17 01:47:12;;;;;;;26.50;15.57;;;230.50;2252.80;;;;;;5052977;28;20429;-81
2022/10/17 01:49:41;;;;;;;24.58;14.02;;;230.50;2252.80;;;;;;5054551;28;20025;-83
2022/10/17 01:52:14;;;;;;;26.90;14.35;;;205.60;2252.80;;;;;;5052895;28;20025;-84
2022/10/17 01:54:51;;;;;;;24.50;13.48;;;205.20;2252.80;;;;;;5054152;28;20037;-83
2022/10/17 01:57:33;;;;;;;22.63;15.57;;;205.40;2252.80;;;;;;5053044;28;20029;-83
2022/10/17 02:00:00;;;;;;;23.20;13.80;;;205.30;2252.80;;;;;;5052986;28;20091;-81
2022/10/17 02:02:26;;;;;;;28.15;15.75;;;205.20;2252.80;;;;;;5052868;28;20040;-82
2022/10/17 02:04:54;;;;;;;33.83;20.33;;;205.40;2252.80;;;;;;5052632;28;20066;-83
2022/10/17 02:07:20;;;;;;;31.50;17.80;;;205.70;2252.80;;;;;;5052848;28;20033;-84
2022/10/17 02:09:46;;;;;;;24.65;15.85;;;205.70;2252.80;;;;;;5052954;28;20167;-83
2022/10/17 02:12:30;;;;;;;27.00;17.40;;;230.40;2252.80;;;;;;5052868;28;20386;-81
2022/10/17 02:15:14;;;;;;;28.63;14.95;;;230.40;2252.80;;;;;;5052718;28;20048;-83
2022/10/17 02:18:05;;;;;;;20.73;15.15;;;205.60;2252.80;;;;;;5052911;28;20035;-83
2022/10/17 02:20:39;;;;;;;22.90;15.15;;;205.40;2252.80;;;;;;5051743;28;20056;-83
2022/10/17 02:23:17;;;;;;;23.92;14.52;;;205.60;2252.80;;;;;;5052778;28;20035;-84
2022/10/17 02:26:10;;;;;;;22.83;15.77;;;205.60;2252.80;;;;;;5058015;28;20103;-82
2022/10/17 02:29:07;;;;;;;22.83;14.95;;;205.30;2252.80;;;;;;5074371;28;20021;-83
2022/10/17 02:31:42;;;;;;;22.67;14.88;;;205.70;2252.80;;;;;;5077835;28;20056;-83
2022/10/17 02:34:14;;;;;;;24.70;14.82;;;230.40;2252.80;;;;;;5074213;28;20081;-84
2022/10/17 02:36:45;;;;;;;26.77;15.60;;;205.70;2252.80;;;;;;5052704;28;20029;-84
2022/10/17 02:39:12;;;;;;;22.08;13.98;;;205.70;2252.80;;;;;;5052861;28;20265;-83
2022/10/17 02:41:39;;;;;;;30.90;16.60;;;205.70;2252.80;;;;;;5052490;28;20029;-83
2022/10/17 02:44:07;;;;;;;28.55;15.52;;;205.30;2252.80;;;;;;5052864;28;20082;-82
2022/10/17 02:46:34;;;;;;;25.38;15.68;;;205.30;2252.80;;;;;;5052670;28;20092;-84
2022/10/17 02:49:23;;;;;;;27.95;15.98;;;205.40;2252.80;;;;;;5053785;28;20075;-84
2022/10/17 02:52:11;;;;;;;25.42;16.50;;;205.00;2252.80;;;;;;5035240;28;20395;-83
2022/10/17 02:54:49;;;;;;;29.02;15.88;;;205.30;2252.80;;;;;;5031919;28;20112;-83
2022/10/17 02:57:23;;;;;;;25.05;15.40;;;205.10;2252.80;;;;;;5031635;28;20034;-83
2022/10/17 02:59:50;;;;;;;25.77;15.95;;;205.20;2252.80;;;;;;5032646;28;20079;-84
2022/10/17 03:02:16;;;;;;;28.25;17.38;;;205.40;2252.80;;;;;;5032481;28;20029;-84
2022/10/17 03:04:43;;;;;;;31.25;18.00;;;205.30;2252.80;;;;;;5033172;28;20034;-82
2022/10/17 03:07:09;;;;;;;24.75;17.33;;;205.30;2252.80;;;;;;5032298;28;20394;-84
2022/10/17 03:09:35;;;;;;;31.98;17.80;;;205.50;2252.80;;;;;;5031850;28;20071;-82
2022/10/17 03:12:01;;;;;;;29.10;17.45;;;205.60;2252.80;;;;;;5032327;28;20029;-82
2022/10/17 03:14:26;;;;;;;22.30;15.40;;;205.60;2252.80;;;;;;5032287;28;20105;-82
2022/10/17 03:16:52;;;;;;;22.23;14.63;;;205.50;2252.80;;;;;;5032237;28;20121;-82
2022/10/17 03:19:18;;;;;;;26.92;16.35;;;205.60;2252.80;;;;;;5032466;28;20076;-82
2022/10/17 03:21:44;;;;;;;23.83;15.35;;;205.40;2252.80;;;;;;5031625;28;20088;-82
2022/10/17 03:24:10;;;;;;;21.55;15.23;;;205.30;2252.80;;;;;;5031904;28;20079;-83
2022/10/17 03:26:36;;;;;;;21.02;14.48;;;205.40;2252.80;;;;;;5032644;28;20033;-83
2022/10/17 03:29:01;;;;;;;21.17;12.93;;;205.60;2252.80;;;;;;5033475;28;20117;-83
2022/10/17 03:31:27;;;;;;;24.10;14.98;;;205.60;2252.80;;;;;;5033542;28;20111;-83
2022/10/17 03:33:53;;;;;;;27.35;15.75;;;205.60;2252.80;;;;;;5036057;28;20475;-82
2022/10/17 03:36:19;;;;;;;24.77;15.65;;;205.70;2252.80;;;;;;5035945;28;20116;-83
2022/10/17 03:38:46;;;;;;;41.38;21.92;;;205.60;2252.80;;;;;;5035578;28;20033;-82
2022/10/17 03:41:12;;;;;;;58.83;28.13;;;205.60;2252.80;;;;;;5036705;28;20072;-82
2022/10/17 03:43:41;;;;;;;49.08;25.83;;;205.50;2252.80;;;;;;5035786;28;20026;-82
2022/10/17 03:46:07;;;;;;;44.00;26.35;;;205.30;2252.80;;;;;;5035625;28;20033;-84
2022/10/17 03:48:33;;;;;;;30.48;19.15;;;205.20;2252.80;;;;;;5035704;28;20145;-84
2022/10/17 03:51:04;;;;;;;24.70;16.38;;;205.20;2252.80;;;;;;5035676;28;20137;-84
2022/10/17 03:53:30;;;;;;;20.60;14.23;;;205.20;2252.80;;;;;;5035451;28;20033;-85
2022/10/17 03:56:07;;;;;;;33.03;15.63;;;204.80;2252.80;;;;;;5035599;28;20401;-83
2022/10/17 03:58:33;;;;;;;22.73;14.13;;;204.80;2252.80;;;;;;5035332;28;20510;-81
2022/10/17 04:01:06;;;;;;;22.38;14.85;;;204.90;2252.80;;;;;;5035677;28;20029;-82
2022/10/17 04:03:32;;;;;;;29.55;16.17;;;180.10;2252.80;;;;;;5035624;28;20044;-81
2022/10/17 04:05:59;;;;;;;21.83;14.63;;;179.90;2252.80;;;;;;5035238;28;20026;-83
2022/10/17 04:08:26;;;;;;;26.25;16.55;;;180.10;2252.80;;;;;;5036559;28;20045;-82
2022/10/17 04:10:52;;;;;;;29.75;19.95;;;205.60;2252.80;;;;;;5035527;28;20480;-82
2022/10/17 04:13:18;;;;;;;25.42;17.15;;;179.70;2252.80;;;;;;5034928;28;20036;-85
2022/10/17 04:15:54;;;;;;;30.23;18.05;;;179.70;2252.80;;;;;;5035225;28;20029;-84
2022/10/17 04:18:20;;;;;;;28.52;16.55;;;179.50;2252.80;;;;;;5035424;28;20538;-83
2022/10/17 04:20:46;;;;;;;25.95;17.80;;;179.90;2252.80;;;;;;5035777;28;20109;-85
2022/10/17 04:23:12;;;;;;;28.60;17.13;;;180.00;2252.80;;;;;;5035229;28;20033;-83
2022/10/17 04:25:37;;;;;;;33.85;19.38;;;179.90;2252.80;;;;;;5035119;28;20120;-83
2022/10/17 04:28:03;;;;;;;33.55;21.15;;;179.60;2252.80;;;;;;5035743;28;20025;-84
2022/10/17 04:30:29;;;;;;;32.05;20.10;;;179.30;2252.80;;;;;;5036098;28;20049;-84
2022/10/17 04:32:55;;;;;;;30.50;19.63;;;154.50;2252.80;;;;;;5035118;28;20485;-85
2022/10/17 04:35:21;;;;;;;24.70;17.48;;;179.20;2252.80;;;;;;5034711;28;20040;-85
2022/10/17 04:37:46;;;;;;;29.08;18.08;;;179.50;2252.80;;;;;;5036248;28;20394;-85
2022/10/17 04:40:12;;;;;;;31.35;19.85;;;179.50;2252.80;;;;;;5034819;28;20073;-84
2022/10/17 04:42:38;;;;;;;28.30;19.70;;;179.60;2252.80;;;;;;5033578;28;20040;-84
2022/10/17 04:45:04;;;;;;;25.52;18.27;;;179.60;2252.80;;;;;;5034748;28;20045;-85
2022/10/17 04:47:31;;;;;;;31.38;20.25;;;179.50;2252.80;;;;;;5034571;28;20026;-84
2022/10/17 04:49:56;;;;;;;30.83;17.42;;;179.20;2252.80;;;;;;5034968;28;20071;-84
2022/10/17 04:52:23;;;;;;;31.73;19.48;;;154.40;2252.80;;;;;;5034724;28;20426;-86
2022/10/17 04:54:50;;;;;;;29.05;19.35;;;154.50;2252.80;;;;;;5034359;28;20348;-85
2022/10/17 04:57:16;;;;;;;32.45;19.10;;;179.80;2252.80;;;;;;5034818;28;20029;-85
2022/10/17 04:59:41;;;;;;;33.20;20.52;;;179.20;2252.80;;;;;;5034514;28;20533;-85
2022/10/17 05:02:07;;;;;;;36.80;18.35;;;179.30;2252.80;;;;;;5034130;28;20116;-84
2022/10/17 05:04:33;;;;;;;30.05;18.83;;;179.40;2252.80;;;;;;5034553;28;20033;-83
2022/10/17 05:06:59;;;;;;;25.23;16.95;;;179.70;2252.80;;;;;;5034371;28;20029;-83
2022/10/17 05:09:24;;;;;;;25.77;18.33;;;179.80;2252.80;;;;;;5034085;28;20112;-84
2022/10/17 05:11:50;;;;;;;33.40;21.27;;;179.90;2252.80;;;;;;5034266;28;20382;-85
2022/10/17 05:14:16;;;;;;;34.33;19.45;;;180.00;2252.80;;;;;;5033916;28;20022;-84
2022/10/17 05:16:42;;;;;;;33.50;18.40;;;179.90;2252.80;;;;;;5033786;28;20021;-84
2022/10/17 05:19:07;;;;;;;29.77;20.15;;;179.90;2252.80;;;;;;5034224;28;20033;-85
2022/10/17 05:21:36;;;;;;;31.80;20.92;;;180.00;2252.80;;;;;;5034229;28;20037;-85
2022/10/17 05:24:07;;;;;;;30.70;20.88;;;179.90;2252.80;;;;;;5034013;28;20059;-84
2022/10/17 05:26:33;;;;;;;26.63;17.05;;;179.80;2252.80;;;;;;5034187;28;20026;-83
2022/10/17 05:29:04;;;;;;;31.92;20.08;;;179.70;2252.80;;;;;;5034089;28;20037;-85
2022/10/17 05:31:30;;;;;;;29.15;18.38;;;179.70;2252.80;;;;;;5035147;28;20134;-83
2022/10/17 05:34:01;;;;;;;28.73;16.45;;;179.80;2252.80;;;;;;5035264;28;20025;-83
2022/10/17 05:36:27;;;;;;;28.63;17.42;;;179.70;2252.80;;;;;;5033609;28;20029;-83
2022/10/17 05:38:53;;;;;;;30.63;17.17;;;179.80;2252.80;;;;;;5033749;28;20044;-84
2022/10/17 05:41:19;;;;;;;35.38;20.30;;;179.50;2252.80;;;;;;5033664;28;20377;-85
2022/10/17 05:43:45;;;;;;;37.20;19.23;;;;;;;;;;5033632;28;20037;-86
2022/10/17 05:46:12;;;;;;;34.05;19.80;;;;;;;;;;5067212;28;20029;-85
2022/10/17 05:48:38;;;;;;;29.83;18.33;;;;;;;;;;5066896;28;20025;-85
2022/10/17 05:51:06;;;;;;;38.47;23.27;;;;;;;;;;5066626;28;20018;-85
2022/10/17 05:53:33;;;;;;;39.20;21.58;;;;;;;;;;5066752;28;20021;-85
2022/10/17 05:56:02;;;;;;;32.90;19.35;;;;;;;;;;5066913;28;20021;-85
2022/10/17 05:58:28;;;;;;;35.35;20.67;;;;;;;;;;5066699;28;20117;-84
2022/10/17 06:00:58;;;;;;;36.42;20.40;;;;;;;;;;5066910;28;20025;-84
2022/10/17 06:03:24;;;;;;;38.28;21.70;;;;;;;;;;5034797;28;20025;-83
2022/10/17 06:05:51;;;;;;;38.78;22.33;;;;;;;;;;5066426;28;20025;-85
2022/10/17 06:08:17;;;;;;;37.30;24.92;;;;;;;;;;5067172;28;20093;-86
2022/10/17 06:10:43;;;;;;;33.88;20.98;;;;;;;;;;5066541;28;20022;-84
2022/10/17 06:13:09;;;;;;;35.50;20.90;;;;;;;;;;5078909;28;20032;-86
2022/10/17 06:15:35;;;;;;;36.92;22.38;;;;;;;;;;5054440;28;20021;-86
2022/10/17 06:18:01;;;;;;;41.92;22.33;;;;;;;;;;5051859;28;20079;-85
2022/10/17 06:20:28;;;;;;;31.80;20.35;;;;;;;;;;5051752;28;20374;-85
2022/10/17 06:22:54;;;;;;;30.75;21.10;;;;;;;;;;5050718;28;20048;-86
2022/10/17 06:25:20;;;;;;;33.65;20.60;;;;;;;;;;5052193;28;20292;-82
2022/10/17 06:27:46;;;;;;;32.38;21.25;;;;;;;;;;5052170;28;20017;-85
2022/10/17 06:30:12;;;;;;;33.97;20.40;;;;;;;;;;5052266;28;20061;-85
2022/10/17 06:32:38;;;;;;;29.45;20.75;;;;;;;;;;5052677;28;20025;-84
2022/10/17 06:35:05;;;;;;;30.73;20.05;;;;;;;;;;5052947;28;20049;-85
2022/10/17 06:37:32;;;;;;;30.50;20.90;;;;;;;;;;5052493;28;20029;-85
2022/10/17 06:39:58;;;;;;;27.80;18.45;;;;;;;;;;5052681;28;20084;-83
2022/10/17 06:42:24;;;;;;;28.35;18.92;;;;;;;;;;5052651;28;20170;-84
2022/10/17 06:44:50;;;;;;;30.13;19.52;;;;;;;;;;5052413;28;20477;-84
2022/10/17 06:47:16;;;;;;;27.42;18.40;;;;;;;;;;5052543;28;20025;-84
2022/10/17 06:49:42;;;;;;;28.48;18.20;;;;;;;;;;5053202;28;20029;-84
2022/10/17 06:52:10;;;;;;;38.47;21.73;;;;;;;;;;5053396;28;20049;-84
2022/10/17 06:54:36;;;;;;;33.80;21.55;;;;;;;;;;5051387;28;20425;-83
2022/10/17 06:57:02;;;;;;;29.13;19.23;;;;;;;;;;5052049;28;20112;-82
2022/10/17 06:59:28;;;;;;;36.45;21.10;;;;;;;;;;5053386;28;20029;-83
2022/10/17 07:01:54;;;;;;;41.13;26.73;;;;;;;;;;5052283;28;20040;-83
2022/10/17 07:04:20;;;;;;;35.60;22.88;;;;;;;;;;5051968;28;20040;-82
2022/10/17 07:06:46;;;;;;;36.45;22.73;;;205.50;2252.80;;;;;;5054850;28;20425;-83
2022/10/17 07:09:12;;;;;;;33.42;22.38;;;205.60;2252.80;;;;;;5056370;28;20017;-85
2022/10/17 07:11:39;;;;;;;27.63;18.35;;;205.70;2252.80;;;;;;5056081;28;20063;-86
2022/10/17 07:14:05;;;;;;;29.95;19.98;;;230.40;2252.80;;;;;;5056253;28;20458;-83
2022/10/17 07:16:31;;;;;;;34.80;21.60;;;230.50;2252.80;;;;;;5057255;28;20036;-85
2022/10/17 07:18:56;;;;;;;35.92;25.45;;;230.60;2252.80;;;;;;5055972;28;20025;-84
2022/10/17 07:21:22;;;;;;;28.13;17.88;;;230.70;2252.80;;;;;;5056059;28;20450;-83
2022/10/17 07:23:48;;;;;;;30.38;18.60;;;230.80;2252.80;;;;;;5055874;28;20025;-84
2022/10/17 07:26:15;;;;;;;31.13;19.98;;;230.90;2252.80;;;;;;5055684;28;20025;-82
2022/10/17 07:28:43;;;;;;;29.10;19.65;;;231.00;2252.80;;;;;;5055951;28;20029;-82
2022/10/17 07:31:15;;;;;;;25.23;18.75;;;231.10;2252.80;;;;;;5055905;28;20049;-83
2022/10/17 07:33:41;;;;;;;27.65;17.85;;;231.10;2252.80;;;;;;5055805;28;20040;-82
2022/10/17 07:36:07;;;;;;;25.17;18.15;;;231.30;2252.80;;;;;;5055887;28;20079;-83
2022/10/17 07:38:34;;;;;;;27.38;17.33;;;256.00;2252.80;;;;;;5055700;28;20028;-85
2022/10/17 07:41:03;;;;;;;34.50;17.67;;;256.20;2252.80;;;;;;5055497;28;20057;-82
2022/10/17 07:43:30;;;;;;;25.23;17.08;;;256.30;2252.80;;;;;;5055506;28;20033;-85
2022/10/17 07:45:56;;;;;;;27.00;18.58;;;256.40;2252.80;;;;;;5055673;28;20025;-85
2022/10/17 07:48:23;;;;;;;22.77;16.38;;;256.50;2252.80;;;;;;5038572;28;20047;-82
2022/10/17 07:50:50;;;;;;;29.50;19.38;;;256.80;2252.80;;;;;;5055553;28;20067;-84
2022/10/17 07:53:16;;;;;;;24.45;18.05;;;256.90;2252.80;;;;;;5055188;28;20470;-82
2022/10/17 07:55:43;;;;;;;29.15;19.55;;;281.70;2278.40;;;;;;5056455;28;20025;-82
2022/10/17 07:58:09;;;;;;;25.23;17.20;;;281.70;2278.40;;;;;;5055454;28;20032;-84
2022/10/17 08:00:38;;;;;;;25.95;18.42;;;282.00;2278.40;;;;;;5055175;28;20490;-85
2022/10/17 08:03:04;;;;;;;27.58;19.55;;;282.00;2278.40;;;;;;5055187;28;20029;-83
2022/10/17 08:05:31;;;;;;;20.05;15.48;;;282.10;2278.40;;;;;;5055495;28;20035;-85
2022/10/17 08:07:57;;;;;;;24.63;16.65;;;307.60;2304.00;;;;;;5055221;28;20044;-85
2022/10/17 08:10:28;;;;;;;27.92;17.65;;;;;;;;;;5055342;28;20474;-84
2022/10/17 08:12:54;;;;;;;18.58;13.77;;;;;;;;;;5055139;28;20025;-84
2022/10/17 08:15:20;;;;;;;23.33;16.73;;;307.20;2304.00;;;;;;5055127;28;20511;-86
2022/10/17 08:17:46;;;;;;;23.83;16.00;;;307.30;2304.00;;;;;;5053665;28;20033;-82
2022/10/17 08:20:12;;;;;;;21.80;14.75;;;307.30;2304.00;;;;;;5054747;28;20029;-82
2022/10/17 08:22:38;;;;;;;24.27;14.57;;;;;;;;;;5054473;28;20044;-81
2022/10/17 08:25:04;;;;;;;21.77;12.60;;;307.70;2304.00;;;;;;5053917;28;20033;-82
2022/10/17 08:27:32;;;;;;;13.93;10.88;;;307.70;2304.00;;;;;;5053754;28;20032;-81
2022/10/17 08:29:59;;;;;;;20.25;12.93;;;307.90;2304.00;;;;;;5053425;28;20041;-81
2022/10/17 08:32:27;;;;;;;15.93;10.57;;;307.90;2304.00;;;;;;5054036;28;20029;-81
2022/10/17 08:34:54;;;;;;;19.83;12.73;;;308.10;2304.00;;;;;;5054593;28;20021;-80
2022/10/17 08:37:20;;;;;;;21.02;13.20;;;;;;;;;;5055367;28;20490;-82
2022/10/17 08:39:47;;;;;;;16.58;11.68;;;;;;;;;;5054360;28;20382;-81
2022/10/17 08:42:22;;;;;;;18.67;11.43;;;;;;;;;;5054912;28;20040;-80
2022/10/17 08:45:07;;;;;;;16.20;11.70;;;;;;;;;;5054228;28;20025;-81
2022/10/17 08:47:43;;;;;;;20.70;13.27;;;333.40;2329.60;;;;;;5054103;28;20032;-78
2022/10/17 08:50:39;;;;;;;18.67;12.07;;;333.30;2329.60;;;;;;5054354;28;20378;-81
2022/10/17 08:53:24;;;;;;;17.25;11.63;;;333.70;2329.60;;;;;;5052380;28;20044;-81
2022/10/17 08:55:52;;;;;;;18.42;12.30;;;333.60;2329.60;;;;;;5053867;28;20545;-80
2022/10/17 08:58:22;;;;;;;21.63;12.38;;;358.40;2329.60;;;;;;5055450;28;20028;-81
2022/10/17 09:01:00;;;;;;;19.10;12.27;;;;;;;;;;5054077;28;20028;-79
2022/10/17 09:03:45;;;;;;;18.02;11.93;;;;;;;;;;5053730;28;20493;-80
2022/10/17 09:06:11;;;;;;;19.20;13.75;;;;;;;;;;5053950;28;20025;-80
2022/10/17 09:08:46;;;;;;;20.10;14.13;;;;;;;;;;5053847;28;20025;-80
2022/10/17 09:11:40;;;;;;;21.67;14.63;;;;;;;;;;5053843;28;20370;-80
2022/10/17 09:14:16;;;;;;;24.83;14.20;;;;;;;;;;5052639;28;20084;-81
2022/10/17 09:16:51;;;;;;;18.13;11.45;;;;;;;;;;5053748;28;20025;-80
2022/10/17 09:19:34;;;;;;;17.40;13.95;;;384.10;2329.60;;;;;;5054589;28;20024;-81
2022/10/17 09:22:00;;;;;;;24.67;14.25;;;;;;;;;;5053689;28;20033;-80
2022/10/17 09:24:46;;;;;;;23.35;15.90;;;384.30;2329.60;;;;;;5053732;28;20458;-81
2022/10/17 09:27:25;;;;;;;25.63;16.73;;;384.20;2329.60;;;;;;5053498;28;20120;-79
2022/10/17 09:30:01;;;;;;;21.70;14.18;;;384.50;2329.60;;;;;;5053069;28;20094;-80
2022/10/17 09:32:28;;;;;;;23.30;16.23;;;;;;;;;;5064422;28;20047;-78
2022/10/17 09:34:54;;;;;;;20.40;14.20;;;384.80;2329.60;;;;;;5079219;28;20017;-80
2022/10/17 09:37:28;;;;;;;20.50;15.02;;;409.60;2355.20;;;;;;5078656;28;20049;-79
2022/10/17 09:39:54;;;;;;;23.52;15.07;;;409.70;2355.20;;;;;;5056315;28;20021;-79
2022/10/17 09:42:25;;;;;;;22.80;15.75;;;384.90;2329.60;;;;;;5052695;28;20079;-78
2022/10/17 09:45:23;;;;;;;21.90;15.32;;;409.70;2355.20;;;;;;5052422;28;20017;-80
2022/10/17 09:48:04;;;;;;;24.30;16.65;;;410.00;2355.20;;;;;;5051088;28;20039;-81
2022/10/17 09:50:32;;;;;;;23.65;15.75;;;410.20;2355.20;;;;;;5050427;28;20025;-77
2022/10/17 09:53:22;;;;;;;27.35;17.05;;;410.30;2355.20;;;;;;5052792;28;20032;-79
2022/10/17 09:56:01;;;;;;;19.13;13.23;;;410.30;2355.20;;;;;;5047004;28;20115;-83
2022/10/17 09:58:46;;;;;;;17.55;10.88;;;;;;;;;;5053057;28;20029;-81
2022/10/17 10:01:22;;;;;;;15.15;9.65;;;;;;;;;;5053958;28;20021;-80
2022/10/17 10:04:07;;;;;;;16.60;10.43;;;;;;;;;;5052991;28;20032;-82
2022/10/17 10:06:34;;;;;;;11.73;8.13;;;;;;;;;;5052661;28;20115;-82
2022/10/17 10:09:04;;;;;;;11.65;7.30;;;;;;;;;;5052893;28;20389;-83
2022/10/17 10:11:49;;;;;;;9.35;6.43;;;;;;;;;;5054206;28;20019;-82
2022/10/17 10:14:41;;;;;;;12.40;7.20;;;;;;;;;;5049335;28;20462;-82
2022/10/17 10:17:27;;;;;;;8.10;5.22;;;435.50;2355.20;;;;;;5045480;28;20029;-83
2022/10/17 10:19:53;;;;;;;8.68;5.18;;;435.40;2355.20;;;;;;5052597;28;20516;-82
2022/10/17 10:22:24;;;;;;;7.15;4.72;;;435.50;2355.20;;;;;;5052108;28;20041;-81
2022/10/17 10:25:16;;;;;;;8.02;5.18;;;435.60;2355.20;;;;;;5052707;28;20203;-82
2022/10/17 10:27:45;;;;;;;9.68;5.57;;;435.60;2355.20;;;;;;5053166;28;20032;-83
2022/10/17 10:30:29;;;;;;;9.25;6.50;;;435.70;2329.60;;;;;;5051653;28;20049;-86
2022/10/17 10:32:59;;;;;;;7.03;4.75;;;435.90;2329.60;;;;;;5052131;28;20474;-82
2022/10/17 10:35:32;;;;;;;6.90;4.70;;;436.10;2227.20;;;;;;5053464;28;20021;-82
2022/10/17 10:38:00;;;;;;;7.97;5.35;;;436.10;2227.20;;;;;;5055001;28;20386;-84
2022/10/17 10:41:06;;;;;;;10.90;5.07;;;460.80;2227.20;;;;;;5052278;28;20021;-82
2022/10/17 10:43:42;;;;;;;8.45;5.45;;;460.80;2252.80;;;;;;5004178;28;20073;-81
2022/10/17 10:46:34;;;;;;;8.52;4.95;;;461.00;2278.40;;;;;;5053861;28;20029;-84
2022/10/17 10:49:02;;;;;;;7.90;4.90;;;461.10;2201.60;;;;;;5047627;28;20494;-87
2022/10/17 10:51:47;;;;;;;5.00;3.20;;;461.20;2150.40;;;;;;5051531;28;20036;-84
2022/10/17 10:54:36;;;;;;;6.65;3.92;;;;;;;;;;5052172;28;20059;-83
2022/10/17 10:57:06;;;;;;;9.82;5.55;;;461.70;2124.80;;;;;;5036647;28;20040;-85
2022/10/17 10:59:40;;;;;;;6.68;4.72;;;486.50;2150.40;;;;;;5052390;28;20087;-83
2022/10/17 11:02:27;;;;;;;7.95;4.60;;;;;;;;;;5052596;28;20119;-85
2022/10/17 11:05:05;;;;;;;6.03;4.53;;;486.50;2150.40;;;;;;5050397;28;20108;-82
2022/10/17 11:07:54;;;;;;;6.75;4.15;;;486.60;2073.60;;;;;;5051474;28;20033;-83
2022/10/17 11:10:32;;;;;;;8.88;5.15;;;486.70;2048.00;;;;;;5052329;28;20462;-84
2022/10/17 11:13:18;;;;;;;6.82;4.68;;;486.80;2073.60;;;;;;5052394;28;20033;-82
2022/10/17 11:15:48;;;;;;;6.35;3.83;;;;;;;;;;5053223;28;20773;-85
2022/10/17 11:18:32;;;;;;;10.10;6.95;;;512.10;1945.60;;;;;;5051703;28;20025;-85
2022/10/17 11:21:40;;;;;;;7.00;4.78;;;512.80;1894.40;;;;;;5051931;28;20021;-83
2022/10/17 11:24:46;;;;;;;8.70;4.30;;;512.70;1920.00;;;;;;4943218;28;20066;-83
2022/10/17 11:27:12;;;;;;;7.68;5.70;;;537.60;1894.40;;;;;;4971983;28;20451;-81
2022/10/17 11:29:40;;;;;;;6.70;3.83;;;538.40;1817.60;;;;;;5029204;28;20049;-82
2022/10/17 11:32:16;;;;;;;7.55;4.30;;;538.40;1792.00;;;;;;5053051;28;20078;-82
2022/10/17 11:34:47;;;;;;;12.38;6.40;;;563.30;1868.80;;;;;;5052231;28;20108;-83
2022/10/17 11:37:20;;;;;;;11.88;5.88;;;563.50;1792.00;;;;;;5053169;28;20110;-82
2022/10/17 11:39:52;;;;;;;10.35;5.15;;;563.80;1817.60;;;;;;5035729;28;20075;-82
2022/10/17 11:42:30;;;;;;;8.73;5.13;;;564.00;1715.20;;;;;;5051732;28;20041;-81
2022/10/17 11:45:03;;;;;;;7.88;5.00;;;564.00;1715.20;;;;;;5051713;28;20090;-82
2022/10/17 11:47:35;;;;;;;9.15;5.30;;;588.90;1715.20;;;;;;5051702;28;20029;-81
2022/10/17 11:50:19;;;;;;;9.43;5.15;;;589.20;1689.60;;;;;;5048687;28;20466;-82
2022/10/17 11:52:55;;;;;;;7.13;3.88;;;589.40;1664.00;;;;;;5044871;28;20033;-80
2022/10/17 11:55:33;;;;;;;10.98;4.43;;;589.50;1638.40;;;;;;5055601;28;20036;-83
2022/10/17 11:58:24;;;;;;;5.63;3.78;;;589.30;1612.80;;;;;;5055285;28;20028;-80
2022/10/17 12:01:27;;;;;;;8.38;3.60;;;589.70;1638.40;;;;;;5055191;28;20035;-81
2022/10/17 12:04:02;;;;;;;9.80;3.55;;;614.50;1638.40;;;;;;5054966;28;20540;-83
2022/10/17 12:06:53;;;;;;;5.18;3.13;;;614.80;1612.80;;;;;;5056084;28;20022;-82
2022/10/17 12:09:56;;;;;;;6.63;3.20;;;614.80;1612.80;;;;;;5054916;28;20025;-82
2022/10/17 12:12:28;;;;;;;5.28;3.28;;;614.80;1510.40;;;;;;5054630;28;20047;-82
2022/10/17 12:15:14;;;;;;;5.75;3.20;;;614.90;1587.20;;;;;;5055067;28;20040;-83
2022/10/17 12:18:01;;;;;;;4.70;3.30;;;615.20;1561.60;;;;;;5054783;28;20036;-82
2022/10/17 12:20:33;;;;;;;6.53;3.97;;;615.30;1484.80;;;;;;5052770;28;20493;-83
2022/10/17 12:23:11;;;;;;;11.30;6.95;;;640.00;1510.40;;;;;;5054576;28;20033;-82
2022/10/17 12:25:48;;;;;;;6.30;3.10;;;640.10;1459.20;;;;;;5054571;28;20033;-82
2022/10/17 12:28:45;;;;;;;6.65;3.95;;;640.20;1484.80;;;;;;5053668;28;20025;-81
2022/10/17 12:31:26;;;;;;;5.78;3.00;;;;;;;;;;5055118;28;20399;-85
2022/10/17 12:34:00;;;;;;;8.43;4.78;;;640.60;1484.80;;;;;;5052301;28;20222;-80
2022/10/17 12:36:29;;;;;;;5.63;3.10;;;640.60;1484.80;;;;;;5053851;28;20064;-84
2022/10/17 12:39:01;;;;;;;7.20;3.80;;;;;;;;;;5054193;28;20120;-83
2022/10/17 12:41:39;;;;;;;;;;;640.80;1433.60;;;;;;5054053;28;20013;-83
2022/10/17 12:44:14;;;;;;;6.13;4.05;;;665.60;1484.80;;;;;;5054270;28;20316;-83
2022/10/17 12:46:50;;;;;;;7.88;4.53;;;;;;;;;;5054071;28;20029;-83
2022/10/17 12:49:34;;;;;;;6.53;3.83;;;;;;;;;;5054679;28;20024;-83
2022/10/17 12:52:21;;;;;;;6.50;3.55;;;;;;;;;;5048898;28;20478;-82
2022/10/17 12:54:51;;;;;;;6.10;4.30;;;;;;;;;;5022643;28;20087;-83